Time;durP1;ratioP1;P1;durP2;ratioP2;P2;SDS_P1;SDS_P2;PMS_P1;PMS_P2;Temp;Humidity;BMP_temperature;BMP_pressure;BME280_temperature;BME280_humidity;BME280_pressure;Samples;Min_cycle;Max_cycle;Signal;HPM_P1;HPM_P2
2021/05/20 00:00:01;;;;;;;6.68;3.72;;;;;9.70;100734.00;;;;5106857;28;20027;-70
2021/05/20 00:02:28;;;;;;;5.63;3.53;;;;;9.60;100725.00;;;;5107289;28;20435;-66
2021/05/20 00:04:54;;;;;;;9.80;4.10;;;;;9.50;100722.00;;;;5106929;28;20019;-68
2021/05/20 00:07:21;;;;;;;8.38;4.65;;;;;9.50;100728.00;;;;5106891;28;20131;-69
2021/05/20 00:09:48;;;;;;;11.65;4.90;;;;;9.60;100725.00;;;;5106594;28;20035;-66
2021/05/20 00:12:14;;;;;;;6.75;4.30;;;;;9.60;100735.00;;;;5106375;28;20032;-70
2021/05/20 00:14:41;;;;;;;7.13;4.38;;;;;9.60;100732.00;;;;5107240;28;20560;-69
2021/05/20 00:17:08;;;;;;;7.43;3.80;;;;;9.60;100734.00;;;;5107432;28;20027;-73
2021/05/20 00:19:34;;;;;;;8.35;4.55;;;;;9.50;100736.00;;;;5107095;28;20047;-69
2021/05/20 00:22:02;;;;;;;7.30;4.30;;;;;9.50;100742.00;;;;5106904;28;20155;-68
2021/05/20 00:24:28;;;;;;;11.73;5.43;;;;;9.50;100748.00;;;;5107197;28;20032;-69
2021/05/20 00:26:55;;;;;;;12.95;4.57;;;;;9.50;100759.00;;;;5106152;28;20027;-72
2021/05/20 00:29:21;;;;;;;12.75;4.65;;;;;9.40;100759.00;;;;5109806;28;20023;-69
2021/05/20 00:31:48;;;;;;;8.52;4.50;;;;;9.40;100754.00;;;;5107353;28;20483;-69
2021/05/20 00:34:14;;;;;;;14.77;5.40;;;;;9.30;100764.00;;;;5106080;28;20409;-69
2021/05/20 00:36:41;;;;;;;12.88;5.18;;;;;9.30;100772.00;;;;5104555;28;20043;-74
2021/05/20 00:39:08;;;;;;;12.68;5.65;;;;;9.20;100775.00;;;;5104477;28;20015;-70
2021/05/20 00:41:34;;;;;;;10.00;4.90;;;;;9.20;100768.00;;;;5104493;28;20027;-67
2021/05/20 00:44:01;;;;;;;8.13;4.65;;;;;9.20;100786.00;;;;5106029;28;20057;-71
2021/05/20 00:46:27;;;;;;;11.38;5.20;;;;;9.20;100784.00;;;;5106380;28;20119;-68
2021/05/20 00:48:54;;;;;;;12.93;5.10;;;;;9.20;100801.00;;;;5105373;28;20034;-67
2021/05/20 00:51:21;;;;;;;10.07;5.15;;;;;9.20;100790.00;;;;5105499;28;20457;-71
2021/05/20 00:53:49;;;;;;;13.75;4.95;;;;;9.20;100783.00;;;;5105829;28;20058;-71
2021/05/20 00:56:21;;;;;;;8.75;5.15;;;;;9.20;100773.00;;;;5088297;28;20106;-71
2021/05/20 00:58:51;;;;;;;10.50;5.43;;;;;9.30;100784.00;;;;5105913;28;20028;-71
2021/05/20 01:01:17;;;;;;;11.18;5.80;;;;;9.20;100780.00;;;;5106722;28;20456;-67
2021/05/20 01:03:44;;;;;;;16.65;4.93;;;;;9.20;100769.00;;;;5106787;28;20027;-70
2021/05/20 01:06:11;;;;;;;11.68;5.43;;;;;9.20;100781.00;;;;5105670;28;20098;-70
2021/05/20 01:08:37;;;;;;;8.95;4.65;;;;;9.20;100797.00;;;;5105513;28;20137;-71
2021/05/20 01:11:04;;;;;;;19.17;5.82;;;;;9.10;100788.00;;;;5105916;28;20024;-67
2021/05/20 01:13:30;;;;;;;12.43;5.47;;;;;9.20;100793.00;;;;5105418;28;20046;-71
2021/05/20 01:15:57;;;;;;;13.32;4.78;;;;;9.20;100791.00;;;;5105962;28;20061;-69
2021/05/20 01:18:23;;;;;;;7.13;4.93;;;;;9.20;100790.00;;;;5093712;28;20032;-71
2021/05/20 01:20:50;;;;;;;12.25;5.00;;;;;9.20;100797.00;;;;5085106;28;20059;-71
2021/05/20 01:23:19;;;;;;;6.97;4.75;;;;;9.20;100789.00;;;;5086220;28;20032;-65
2021/05/20 01:25:48;;;;;;;13.23;5.75;;;;;9.20;100786.00;;;;5086049;28;20024;-70
2021/05/20 01:28:20;;;;;;;8.43;4.55;;;;;9.10;100797.00;;;;5083544;28;20040;-68
2021/05/20 01:30:46;;;;;;;;;;;;;9.10;100803.00;;;;5086852;28;20119;-70
2021/05/20 01:33:13;;;;;;;11.25;5.20;;;;;9.20;100806.00;;;;5101298;28;19933;-69
2021/05/20 01:35:41;;;;;;;10.50;4.78;;;;;9.20;100802.00;;;;5104307;28;20063;-66
2021/05/20 01:40:41;;;;;;;13.20;5.43;;;;;9.20;100807.00;;;;5084815;28;20671;-67
2021/05/20 01:43:08;;;;;;;11.73;5.32;;;;;9.30;100811.00;;;;5085210;28;20387;-71
2021/05/20 01:45:34;;;;;;;8.75;5.35;;;;;9.30;100815.00;;;;5085293;28;20028;-68
2021/05/20 01:48:01;;;;;;;8.77;5.20;;;;;9.30;100813.00;;;;5084662;28;20020;-73
2021/05/20 01:50:27;;;;;;;9.85;5.55;;;;;9.20;100804.00;;;;5085210;28;20032;-71
2021/05/20 01:52:54;;;;;;;13.85;5.05;;;;;9.10;100816.00;;;;5085062;28;20086;-71
2021/05/20 01:55:21;;;;;;;10.38;5.18;;;;;9.10;100815.00;;;;5085362;28;20554;-68
2021/05/20 01:57:47;;;;;;;9.90;4.97;;;;;9.10;100817.00;;;;5085470;28;20028;-70
2021/05/20 02:00:14;;;;;;;6.93;5.03;;;;;9.10;100818.00;;;;5085089;28;20086;-68
2021/05/20 02:02:41;;;;;;;12.98;5.20;;;;;9.10;100810.00;;;;5084665;28;20073;-70
2021/05/20 02:05:08;;;;;;;13.88;4.82;;;;;9.10;100815.00;;;;5085191;28;20052;-71
2021/05/20 02:07:35;;;;;;;12.23;5.25;;;;;9.10;100799.00;;;;5085343;28;20056;-69
2021/05/20 02:10:01;;;;;;;10.25;5.03;;;;;9.10;100807.00;;;;5085351;28;20032;-71
2021/05/20 02:12:28;;;;;;;8.55;4.68;;;;;9.10;100809.00;;;;5085588;28;20020;-69
2021/05/20 02:14:54;;;;;;;9.98;4.78;;;;;9.00;100802.00;;;;5084700;28;20032;-68
2021/05/20 02:17:21;;;;;;;11.13;5.07;;;;;9.00;100801.00;;;;5085345;28;20036;-72
2021/05/20 02:19:47;;;;;;;11.63;4.95;;;;;9.00;100811.00;;;;5088764;28;20026;-71
2021/05/20 02:22:14;;;;;;;13.20;4.75;;;;;9.00;100813.00;;;;5088168;28;20032;-68
2021/05/20 02:24:41;;;;;;;8.35;3.95;;;;;9.00;100815.00;;;;5088465;28;20077;-73
2021/05/20 02:27:07;;;;;;;11.95;4.60;;;;;9.00;100808.00;;;;5088346;28;20073;-69
2021/05/20 02:29:34;;;;;;;5.47;4.20;;;;;9.00;100796.00;;;;5088360;28;20927;-69
2021/05/20 02:32:00;;;;;;;12.02;4.68;;;;;8.90;100805.00;;;;5088628;28;20074;-71
2021/05/20 02:34:27;;;;;;;9.40;4.45;;;;;8.90;100797.00;;;;5088350;28;20032;-71
2021/05/20 02:36:53;;;;;;;13.82;4.20;;;;;9.00;100796.00;;;;5087982;28;20040;-68
2021/05/20 02:39:21;;;;;;;11.40;4.55;;;;;8.90;100789.00;;;;5088102;28;20032;-74
2021/05/20 02:41:48;;;;;;;16.38;4.47;;;;;8.90;100791.00;;;;5087990;28;20031;-68
2021/05/20 02:44:15;;;;;;;13.38;3.92;;;;;8.90;100792.00;;;;5087442;28;20078;-71
2021/05/20 02:46:41;;;;;;;11.82;4.05;;;;;8.90;100796.00;;;;5088197;28;20662;-74
2021/05/20 02:49:09;;;;;;;12.02;4.50;;;;;8.90;100793.00;;;;5087937;28;20032;-69
2021/05/20 02:51:36;;;;;;;10.57;4.45;;;;;8.90;100806.00;;;;5088186;28;20101;-69
2021/05/20 02:54:03;;;;;;;9.63;4.47;;;;;8.80;100816.00;;;;5087536;28;20060;-68
2021/05/20 02:56:29;;;;;;;11.68;4.75;;;;;8.80;100805.00;;;;5088394;28;20032;-71
2021/05/20 02:58:56;;;;;;;10.75;4.60;;;;;8.90;100804.00;;;;5086815;28;20066;-69
2021/05/20 03:01:23;;;;;;;10.15;4.63;;;;;8.90;100805.00;;;;5087818;28;20162;-67
2021/05/20 03:03:50;;;;;;;14.20;5.55;;;;;8.90;100790.00;;;;5088145;28;20031;-69
2021/05/20 03:06:17;;;;;;;9.73;4.38;;;;;8.80;100783.00;;;;5088332;28;20074;-68
2021/05/20 03:08:43;;;;;;;9.85;4.60;;;;;8.80;100793.00;;;;5087254;28;20486;-71
2021/05/20 03:11:10;;;;;;;8.07;4.82;;;;;8.80;100779.00;;;;5087099;28;20099;-73
2021/05/20 03:13:36;;;;;;;10.27;4.60;;;;;8.80;100796.00;;;;5086440;28;20053;-68
2021/05/20 03:16:03;;;;;;;9.68;5.20;;;;;8.80;100801.00;;;;5087682;28;20036;-70
2021/05/20 03:18:30;;;;;;;7.70;4.43;;;;;8.80;100805.00;;;;5088036;28;20042;-70
2021/05/20 03:20:56;;;;;;;12.43;4.70;;;;;8.80;100790.00;;;;5087671;28;20047;-72
2021/05/20 03:23:23;;;;;;;8.75;4.57;;;;;8.90;100794.00;;;;5086740;28;20736;-69
2021/05/20 03:25:49;;;;;;;18.02;5.32;;;;;8.90;100800.00;;;;5087402;28;20028;-66
2021/05/20 03:28:16;;;;;;;15.48;5.40;;;;;8.90;100808.00;;;;5089086;28;20028;-68
2021/05/20 03:30:42;;;;;;;9.88;5.50;;;;;8.80;100817.00;;;;5087861;28;20027;-71
2021/05/20 03:33:09;;;;;;;9.30;5.38;;;;;8.80;100811.00;;;;5087249;28;20701;-74
2021/05/20 03:35:35;;;;;;;11.07;5.13;;;;;8.80;100807.00;;;;5087025;28;20143;-75
2021/05/20 03:38:03;;;;;;;16.05;5.70;;;;;8.80;100810.00;;;;5068620;28;20565;-69
2021/05/20 03:40:29;;;;;;;13.48;5.22;;;;;8.80;100820.00;;;;5086703;28;20028;-66
2021/05/20 03:42:56;;;;;;;11.23;5.38;;;;;8.90;100798.00;;;;5086635;28;20021;-72
2021/05/20 03:45:22;;;;;;;10.05;5.55;;;;;8.90;100806.00;;;;5068257;28;20085;-68
2021/05/20 03:47:49;;;;;;;12.00;5.05;;;;;8.90;100794.00;;;;5087192;28;20502;-69
2021/05/20 03:50:15;;;;;;;10.60;5.22;;;;;9.00;100778.00;;;;5086438;28;20488;-65
2021/05/20 03:52:42;;;;;;;15.23;5.63;;;;;8.90;100786.00;;;;5086769;28;20103;-66
2021/05/20 03:55:11;;;;;;;8.30;5.10;;;;;8.80;100780.00;;;;5086886;28;20040;-72
2021/05/20 03:57:37;;;;;;;9.50;4.70;;;;;8.70;100789.00;;;;5086655;28;20491;-68
2021/05/20 04:00:05;;;;;;;8.68;4.68;;;;;8.70;100777.00;;;;5086456;28;20028;-72
2021/05/20 04:02:32;;;;;;;7.90;4.78;;;;;8.70;100790.00;;;;5086699;28;20027;-71
2021/05/20 04:04:58;;;;;;;9.15;5.25;;;;;8.60;100787.00;;;;5086695;28;20023;-71
2021/05/20 04:07:25;;;;;;;9.18;4.45;;;;;8.60;100793.00;;;;5086328;28;20502;-69
2021/05/20 04:09:52;;;;;;;7.63;4.57;;;;;8.70;100801.00;;;;5086191;28;20058;-71
2021/05/20 04:12:19;;;;;;;14.80;6.25;;;;;8.60;100784.00;;;;5086088;28;20032;-69
2021/05/20 04:14:45;;;;;;;14.85;6.00;;;;;8.60;100804.00;;;;5086438;28;20123;-69
2021/05/20 04:17:12;;;;;;;11.32;5.70;;;;;8.70;100797.00;;;;5086737;28;20048;-73
2021/05/20 04:19:38;;;;;;;14.50;6.97;;;;;8.60;100798.00;;;;5086654;28;20092;-66
2021/05/20 04:22:05;;;;;;;13.02;5.47;;;;;8.70;100788.00;;;;5086062;28;20019;-70
2021/05/20 04:24:31;;;;;;;9.38;5.53;;;;;8.70;100799.00;;;;5087039;28;20032;-69
2021/05/20 04:26:58;;;;;;;14.10;5.05;;;;;8.70;100795.00;;;;5086778;28;20032;-71
2021/05/20 04:29:25;;;;;;;9.25;4.80;;;;;8.70;100801.00;;;;5085880;28;20084;-71
2021/05/20 04:31:51;;;;;;;15.98;4.70;;;;;8.70;100800.00;;;;5086215;28;20020;-70
2021/05/20 04:34:18;;;;;;;13.05;4.63;;;;;8.70;100798.00;;;;5085900;28;20106;-69
2021/05/20 04:36:45;;;;;;;13.85;4.40;;;;;8.70;100805.00;;;;5085601;28;20032;-68
2021/05/20 04:39:11;;;;;;;7.80;4.00;;;;;8.70;100811.00;;;;5085413;28;20031;-69
2021/05/20 04:41:38;;;;;;;11.48;4.10;;;;;8.70;100800.00;;;;5085786;28;20032;-71
2021/05/20 04:44:05;;;;;;;9.23;4.03;;;;;8.70;100809.00;;;;5086024;28;20046;-69
2021/05/20 04:46:31;;;;;;;8.90;3.60;;;;;8.70;100792.00;;;;5086267;28;20059;-66
2021/05/20 04:48:58;;;;;;;9.73;3.90;;;;;8.80;100792.00;;;;5086103;28;20032;-68
2021/05/20 04:51:24;;;;;;;9.63;4.22;;;;;8.80;100785.00;;;;5086241;28;20027;-71
2021/05/20 04:53:51;;;;;;;11.38;3.83;;;;;8.80;100785.00;;;;5085733;28;20081;-70
2021/05/20 04:56:23;;;;;;;13.23;4.57;;;;;8.80;100799.00;;;;5086608;28;20055;-71
2021/05/20 04:58:50;;;;;;;10.73;4.57;;;;;8.80;100791.00;;;;5086124;28;20024;-71
2021/05/20 05:01:17;;;;;;;10.18;5.57;;;;;8.60;100792.00;;;;5086190;28;20024;-69
2021/05/20 05:03:43;;;;;;;9.00;5.45;;;;;8.50;100781.00;;;;5085622;28;20032;-69
2021/05/20 05:06:10;;;;;;;9.10;5.70;;;;;8.50;100775.00;;;;5085228;28;20076;-70
2021/05/20 05:08:36;;;;;;;17.48;6.15;;;;;8.50;100774.00;;;;5085919;28;20020;-70
2021/05/20 05:11:03;;;;;;;9.38;4.88;;;;;8.60;100768.00;;;;5085711;28;20047;-71
2021/05/20 05:13:29;;;;;;;16.95;5.40;;;;;8.60;100762.00;;;;5086235;28;20593;-67
2021/05/20 05:15:56;;;;;;;9.60;5.50;;;;;8.60;100768.00;;;;5086124;28;20032;-71
2021/05/20 05:18:23;;;;;;;10.93;5.32;;;;;8.60;100782.00;;;;5085862;28;20140;-72
2021/05/20 05:20:50;;;;;;;16.80;5.45;;;;;8.60;100767.00;;;;5085344;28;20032;-68
2021/05/20 05:23:16;;;;;;;10.55;4.68;;;;;8.60;100759.00;;;;5085586;28;20028;-69
2021/05/20 05:25:43;;;;;;;17.60;4.85;;;;;8.60;100779.00;;;;5085330;28;20040;-68
2021/05/20 05:28:09;;;;;;;11.18;4.25;;;;;8.60;100768.00;;;;5085233;28;20032;-70
2021/05/20 05:30:37;;;;;;;16.48;5.65;;;;;8.60;100767.00;;;;5085269;28;20066;-68
2021/05/20 05:33:04;;;;;;;10.63;4.80;;;;;8.60;100772.00;;;;5084874;28;20119;-69
2021/05/20 05:35:30;;;;;;;6.45;3.95;;;;;8.60;100750.00;;;;5085372;28;20024;-68
2021/05/20 05:37:57;;;;;;;16.80;4.53;;;;;8.60;100743.00;;;;5085218;28;20479;-69
2021/05/20 05:40:24;;;;;;;10.80;4.45;;;;;8.60;100760.00;;;;5085142;28;20028;-70
2021/05/20 05:42:50;;;;;;;11.82;4.22;;;;;8.70;100745.00;;;;5085799;28;20610;-71
2021/05/20 05:45:17;;;;;;;7.72;4.00;;;;;8.60;100759.00;;;;5084811;28;20450;-65
2021/05/20 05:47:43;;;;;;;14.10;4.30;;;;;8.70;100770.00;;;;5084672;28;20036;-66
2021/05/20 05:50:13;;;;;;;9.88;4.35;;;;;8.70;100767.00;;;;5085277;28;20024;-72
2021/05/20 05:52:40;;;;;;;10.20;4.43;;;;;8.60;100752.00;;;;5086331;28;20036;-68
2021/05/20 05:55:07;;;;;;;12.90;3.75;;;;;8.60;100757.00;;;;5088893;28;20043;-71
2021/05/20 05:57:34;;;;;;;9.63;4.20;;;;;8.60;100770.00;;;;5089285;28;20043;-67
2021/05/20 06:00:02;;;;;;;7.20;3.95;;;;;8.60;100790.00;;;;5088947;28;20024;-73
2021/05/20 06:02:30;;;;;;;8.13;4.30;;;;;8.60;100780.00;;;;5088756;28;20024;-73
2021/05/20 06:04:57;;;;;;;7.28;3.58;;;;;8.60;100784.00;;;;5089350;28;20478;-73
2021/05/20 06:07:23;;;;;;;5.88;2.90;;;;;8.60;100786.00;;;;5088309;28;20031;-69
2021/05/20 06:09:50;;;;;;;10.65;3.83;;;;;8.60;100763.00;;;;5088710;28;20609;-72
2021/05/20 06:12:17;;;;;;;9.85;3.22;;;;;8.60;100755.00;;;;5088605;28;20059;-69
2021/05/20 06:14:45;;;;;;;10.35;3.63;;;;;8.60;100747.00;;;;5088489;28;20032;-68
2021/05/20 06:17:11;;;;;;;8.20;3.45;;;;;8.60;100734.00;;;;5088822;28;20039;-70
2021/05/20 06:19:38;;;;;;;6.60;3.70;;;;;8.60;100715.00;;;;5089116;28;20032;-68
2021/05/20 06:22:04;;;;;;;9.77;4.18;;;;;8.60;100714.00;;;;5088616;28;20115;-68
2021/05/20 06:24:31;;;;;;;10.90;4.10;;;;;8.70;100717.00;;;;5088685;28;20035;-69
2021/05/20 06:26:57;;;;;;;8.05;3.45;;;;;8.80;100723.00;;;;5089737;28;20024;-70
2021/05/20 06:29:24;;;;;;;8.63;3.15;;;;;8.80;100715.00;;;;5089625;28;20038;-65
2021/05/20 06:31:50;;;;;;;5.97;2.53;;;;;8.80;100737.00;;;;5087946;28;20518;-68
2021/05/20 06:34:17;;;;;;;8.25;3.05;;;;;8.80;100742.00;;;;5088313;28;20036;-68
2021/05/20 06:36:45;;;;;;;14.88;3.85;;;;;8.80;100755.00;;;;5088739;28;20035;-71
2021/05/20 06:39:11;;;;;;;7.55;3.38;;;;;8.70;100748.00;;;;5088181;28;20032;-67
2021/05/20 06:41:38;;;;;;;11.18;3.47;;;;;8.60;100750.00;;;;5087632;28;20032;-68
2021/05/20 06:44:05;;;;;;;9.43;3.20;;;;;8.70;100770.00;;;;5088158;28;20113;-73
2021/05/20 06:46:34;;;;;;;11.15;3.20;;;;;8.60;100773.00;;;;5088640;28;20032;-72
2021/05/20 06:49:00;;;;;;;8.90;3.83;;;;;8.60;100767.00;;;;5088691;28;20035;-69
2021/05/20 06:51:27;;;;;;;8.90;3.72;;;;;8.60;100753.00;;;;5088098;28;20031;-68
2021/05/20 06:53:53;;;;;;;10.45;3.50;;;;;8.60;100769.00;;;;5087961;28;20048;-68
2021/05/20 06:56:23;;;;;;;8.07;3.30;;;;;8.60;100742.00;;;;5087724;28;20036;-71
2021/05/20 07:01:36;;;;;;;6.45;3.03;;;;;8.60;100774.00;;;;5087712;28;20429;-68
2021/05/20 07:04:03;;;;;;;6.50;3.20;;;;;8.60;100797.00;;;;5087097;28;20080;-73
2021/05/20 07:06:30;;;;;;;8.95;3.30;;;;;8.60;100790.00;;;;5087717;28;20043;-71
2021/05/20 07:08:56;;;;;;;10.57;3.15;;;;;8.70;100788.00;;;;5087093;28;20067;-71
2021/05/20 07:11:23;;;;;;;11.25;3.58;;;;;8.70;100800.00;;;;5087798;28;20372;-69
2021/05/20 07:13:49;;;;;;;7.13;3.65;;;;;8.70;100799.00;;;;5087134;28;20646;-69
2021/05/20 07:16:16;;;;;;;11.63;3.20;;;;;8.70;100785.00;;;;5087458;28;20049;-71
2021/05/20 07:18:42;;;;;;;9.38;2.70;;;;;8.70;100775.00;;;;5087503;28;20024;-74
2021/05/20 07:21:09;;;;;;;10.15;3.00;;;;;8.70;100766.00;;;;5087458;28;20141;-71
2021/05/20 07:23:35;;;;;;;7.93;2.72;;;;;8.70;100781.00;;;;5087104;28;20111;-70
2021/05/20 07:26:02;;;;;;;7.18;2.65;;;;;8.70;100780.00;;;;5088370;28;20120;-71
2021/05/20 07:28:28;;;;;;;11.15;2.75;;;;;8.80;100777.00;;;;5087785;28;20024;-71
2021/05/20 07:30:55;;;;;;;9.95;2.85;;;;;8.80;100783.00;;;;5087696;28;20067;-73
2021/05/20 07:33:23;;;;;;;7.03;2.28;;;;;8.70;100793.00;;;;5086737;28;20051;-68
2021/05/20 07:35:50;;;;;;;6.88;3.05;;;;;8.70;100792.00;;;;5086910;28;20451;-70
2021/05/20 07:38:16;;;;;;;8.77;3.30;;;;;8.70;100795.00;;;;5086812;28;20131;-68
2021/05/20 07:40:43;;;;;;;8.88;3.10;;;;;8.60;100794.00;;;;5087341;28;20059;-69
2021/05/20 07:43:10;;;;;;;9.13;3.15;;;;;8.60;100786.00;;;;5087348;28;20078;-71
2021/05/20 07:45:36;;;;;;;8.27;2.90;;;;;8.60;100792.00;;;;5087210;28;20063;-71
2021/05/20 07:48:03;;;;;;;7.25;3.30;;;;;8.60;100793.00;;;;5087376;28;20034;-71
2021/05/20 07:50:30;;;;;;;7.70;2.90;;;;;8.60;100788.00;;;;5086668;28;20569;-69
2021/05/20 07:52:57;;;;;;;9.77;3.00;;;;;8.60;100793.00;;;;5086602;28;20028;-69
2021/05/20 07:55:23;;;;;;;7.20;2.90;;;;;8.60;100797.00;;;;5087134;28;20028;-73
2021/05/20 07:57:53;;;;;;;6.22;2.80;;;;;8.50;100805.00;;;;5086540;28;20032;-67
2021/05/20 08:00:20;;;;;;;8.32;2.85;;;;;8.50;100803.00;;;;5086910;28;20020;-68
2021/05/20 08:03:19;;;;;;;7.32;2.92;;;;;8.50;100802.00;;;;5086377;28;20051;-68
2021/05/20 08:05:40;;;;;;;9.50;3.85;;;;;8.60;100815.00;;;;5085923;28;20143;-69
2021/05/20 08:08:25;;;;;;;10.32;4.10;;;;;8.60;100807.00;;;;5086723;28;20032;-68
2021/05/20 08:11:10;;;;;;;13.05;4.28;;;;;8.60;100814.00;;;;5086542;28;20505;-68
2021/05/20 08:13:36;;;;;;;10.98;3.92;;;;;8.50;100819.00;;;;5085874;28;20028;-67
2021/05/20 08:16:04;;;;;;;7.43;3.28;;;;;8.60;100818.00;;;;5086861;28;20047;-74
2021/05/20 08:18:31;;;;;;;8.75;3.40;;;;;8.60;100806.00;;;;5086902;28;20433;-69
2021/05/20 08:20:59;;;;;;;12.68;3.28;;;;;8.60;100815.00;;;;5086140;28;20027;-71
2021/05/20 08:23:26;;;;;;;20.20;5.20;;;;;8.60;100818.00;;;;5085726;28;20058;-69
2021/05/20 08:25:53;;;;;;;9.90;3.38;;;;;8.60;100807.00;;;;5086099;28;20055;-71
2021/05/20 08:28:19;;;;;;;13.13;3.90;;;;;8.70;100821.00;;;;5085798;28;20024;-67
2021/05/20 08:30:47;;;;;;;13.13;3.70;;;;;8.70;100815.00;;;;5086208;28;20395;-66
2021/05/20 08:33:13;;;;;;;12.82;3.15;;;;;8.70;100805.00;;;;5085919;28;20144;-70
2021/05/20 08:35:40;;;;;;;5.78;2.88;;;;;8.70;100818.00;;;;5086111;28;20032;-73
2021/05/20 08:38:07;;;;;;;8.20;2.67;;;;;8.70;100806.00;;;;5086412;28;20031;-66
2021/05/20 08:40:34;;;;;;;7.00;2.67;;;;;8.70;100799.00;;;;5086973;28;20372;-68
2021/05/20 08:43:01;;;;;;;8.35;3.03;;;;;8.70;100794.00;;;;5086340;28;20081;-68
2021/05/20 08:45:31;;;;;;;8.13;2.60;;;;;8.70;100787.00;;;;5086406;28;20035;-67
2021/05/20 08:47:59;;;;;;;16.33;3.83;;;;;8.80;100797.00;;;;5085903;28;21052;-68
2021/05/20 08:50:28;;;;;;;9.88;3.20;;;;;8.90;100789.00;;;;5086417;28;20032;-67
2021/05/20 08:52:55;;;;;;;7.55;4.10;;;;;8.90;100797.00;;;;5085647;28;20076;-73
2021/05/20 08:55:25;;;;;;;13.95;4.00;;;;;8.90;100788.00;;;;5085935;28;20032;-72
2021/05/20 08:57:51;;;;;;;7.28;3.45;;;;;8.90;100787.00;;;;5085988;28;20035;-72
2021/05/20 09:00:20;;;;;;;6.93;3.42;;;;;8.80;100799.00;;;;5086024;28;20495;-68
2021/05/20 09:02:48;;;;;;;7.82;3.30;;;;;8.80;100799.00;;;;5086172;28;20056;-70
2021/05/20 09:05:17;;;;;;;5.97;2.90;;;;;8.80;100820.00;;;;5085707;28;20056;-71
2021/05/20 09:07:52;;;;;;;10.13;3.90;;;;;8.80;100831.00;;;;5085343;28;20115;-69
2021/05/20 09:10:48;;;;;;;7.97;4.55;;;;;8.90;100863.00;;;;5084819;28;20513;-68
2021/05/20 09:13:19;;;;;;;8.70;4.95;;;;;8.80;100872.00;;;;5067004;28;20521;-68
2021/05/20 09:15:51;;;;;;;22.10;6.85;;;;;8.90;100880.00;;;;5085416;28;20460;-83
2021/05/20 09:18:24;;;;;;;12.77;5.05;;;;;8.80;100881.00;;;;5067762;28;20039;-70
2021/05/20 09:20:57;;;;;;;13.52;4.85;;;;;8.90;100891.00;;;;5085899;28;20024;-68
2021/05/20 09:23:32;;;;;;;10.45;5.70;;;;;9.00;100885.00;;;;5085773;28;20039;-69
2021/05/20 09:26:06;;;;;;;15.00;6.22;;;;;9.00;100899.00;;;;5086271;28;20044;-68
2021/05/20 09:28:38;;;;;;;10.95;6.10;;;;;9.10;100896.00;;;;5089698;28;20449;-70
2021/05/20 09:31:05;;;;;;;9.80;5.82;;;;;9.10;100888.00;;;;5089734;28;20024;-70
2021/05/20 09:33:31;;;;;;;11.93;6.30;;;;;9.10;100899.00;;;;5089770;28;20093;-68
2021/05/20 09:35:58;;;;;;;10.48;6.03;;;;;9.10;100885.00;;;;5089538;28;20119;-69
2021/05/20 09:38:27;;;;;;;13.40;6.70;;;;;9.20;100905.00;;;;5089857;28;20031;-69
2021/05/20 09:41:02;;;;;;;21.88;7.15;;;;;9.10;100902.00;;;;5089242;28;20038;-68
2021/05/20 09:43:35;;;;;;;14.25;6.20;;;;;9.20;100898.00;;;;5089627;28;20441;-68
2021/05/20 09:46:10;;;;;;;12.07;6.13;;;;;9.20;100898.00;;;;5089364;28;20032;-69
2021/05/20 09:48:39;;;;;;;8.38;5.85;;;;;9.10;100905.00;;;;5090012;28;20475;-70
2021/05/20 09:51:07;;;;;;;15.80;7.40;;;;;9.10;100886.00;;;;5089788;28;20528;-67
2021/05/20 09:53:55;;;;;;;9.00;6.38;;;;;9.00;100895.00;;;;5067213;28;20419;-70
2021/05/20 09:56:38;;;;;;;10.82;6.05;;;;;9.00;100901.00;;;;5069040;28;20060;-70
2021/05/20 09:59:05;;;;;;;9.18;5.10;;;;;9.00;100907.00;;;;5069064;28;20032;-69
2021/05/20 10:01:31;;;;;;;10.88;6.50;;;;;9.00;100907.00;;;;5068706;28;20101;-70
2021/05/20 10:03:58;;;;;;;15.35;5.88;;;;;9.00;100910.00;;;;5068490;28;20519;-70
2021/05/20 10:06:42;;;;;;;7.82;5.72;;;;;9.00;100911.00;;;;5068810;28;20074;-69
2021/05/20 10:09:14;;;;;;;16.33;6.15;;;;;9.10;100917.00;;;;5068852;28;20713;-68
2021/05/20 10:11:44;;;;;;;9.30;5.18;;;;;9.10;100903.00;;;;5069132;28;20028;-70
2021/05/20 10:14:11;;;;;;;13.30;5.80;;;;;9.10;100887.00;;;;5069186;28;20153;-68
2021/05/20 10:16:39;;;;;;;12.13;5.28;;;;;9.10;100902.00;;;;5068688;28;20864;-69
2021/05/20 10:19:07;;;;;;;10.43;6.07;;;;;9.20;100900.00;;;;5068582;28;20085;-70
2021/05/20 10:21:33;;;;;;;18.45;6.25;;;;;9.20;100893.00;;;;5068333;28;20037;-68
2021/05/20 10:24:00;;;;;;;10.82;6.15;;;;;9.20;100882.00;;;;5068503;28;20127;-69
2021/05/20 10:26:28;;;;;;;11.07;5.82;;;;;9.30;100895.00;;;;5068581;28;20419;-69
2021/05/20 10:28:55;;;;;;;15.00;5.70;;;;;9.30;100897.00;;;;5068206;28;20029;-69
2021/05/20 10:31:23;;;;;;;10.00;5.70;;;;;9.30;100910.00;;;;5068659;28;20024;-70
2021/05/20 10:33:49;;;;;;;16.38;5.95;;;;;9.40;100920.00;;;;5068507;28;20063;-70
2021/05/20 10:36:24;;;;;;;11.63;5.75;;;;;9.40;100913.00;;;;5068997;28;20036;-69
2021/05/20 10:38:51;;;;;;;10.10;5.15;;;;;9.50;100900.00;;;;5067321;28;20085;-70
2021/05/20 10:41:19;;;;;;;11.18;5.15;;;;;9.50;100906.00;;;;5067087;28;20043;-69
2021/05/20 10:44:08;;;;;;;13.85;5.65;;;;;9.50;100899.00;;;;5068430;28;20040;-70
2021/05/20 10:47:03;;;;;;;17.33;6.30;;;;;9.50;100897.00;;;;5068367;28;20051;-70
2021/05/20 10:49:51;;;;;;;25.77;6.72;;;;;9.50;100895.00;;;;5068026;28;20055;-69
2021/05/20 10:52:38;;;;;;;17.92;5.47;;;;;9.50;100881.00;;;;5068155;28;20051;-70
2021/05/20 10:55:16;;;;;;;26.02;8.68;;;;;9.60;100890.00;;;;5087449;28;20515;-69
2021/05/20 10:58:00;;;;;;;18.15;7.70;;;;;9.70;100883.00;;;;5088432;28;20039;-70
2021/05/20 11:00:37;;;;;;;40.25;9.88;;;;;9.70;100885.00;;;;5088387;28;20043;-69
2021/05/20 11:03:04;;;;;;;13.02;7.03;;;;;9.60;100862.00;;;;5088281;28;20595;-67
2021/05/20 11:05:43;;;;;;;16.23;5.85;;;;;9.60;100869.00;;;;5088311;28;20695;-69
2021/05/20 11:08:28;;;;;;;29.48;5.65;;;;;9.60;100880.00;;;;5087926;28;20429;-70
2021/05/20 11:10:56;;;;;;;18.83;4.80;;;;;9.60;100870.00;;;;5087586;28;20478;-70
2021/05/20 11:13:41;;;;;;;23.10;5.70;;;;;9.70;100865.00;;;;5087688;28;20036;-69
2021/05/20 11:16:18;;;;;;;19.20;5.90;;;;;9.70;100844.00;;;;5088014;28;20032;-70
2021/05/20 11:18:49;;;;;;;10.10;5.43;;;;;9.80;100849.00;;;;5087439;28;20504;-68
2021/05/20 11:21:16;;;;;;;13.73;4.80;;;;;9.90;100851.00;;;;5087574;28;20040;-69
2021/05/20 11:23:43;;;;;;;15.80;4.80;;;;;9.80;100832.00;;;;5087671;28;20376;-68
2021/05/20 11:26:18;;;;;;;8.38;4.95;;;;;9.90;100832.00;;;;5088210;28;20039;-69
2021/05/20 11:29:08;;;;;;;10.82;5.10;;;;;9.90;100831.00;;;;5087406;28;20402;-68
2021/05/20 11:31:35;;;;;;;11.32;5.32;;;;;9.90;100825.00;;;;5088166;28;20028;-68
2021/05/20 11:35:02;;;;;;;14.23;5.68;;;;;10.00;100824.00;;;;5087624;28;20028;-68
2021/05/20 11:36:53;;;;;;;14.77;4.82;;;;;10.10;100813.00;;;;5076495;28;20482;-68
2021/05/20 11:39:22;;;;;;;10.35;4.57;;;;;10.10;100791.00;;;;5087224;28;20031;-67
2021/05/20 11:41:50;;;;;;;11.02;4.22;;;;;10.10;100796.00;;;;5087190;28;20406;-67
2021/05/20 11:44:22;;;;;;;8.60;4.15;;;;;10.00;100818.00;;;;5087186;28;20519;-69
2021/05/20 11:47:08;;;;;;;;;;;;;10.10;100821.00;;;;5088216;28;20507;-69
2021/05/20 11:49:37;;;;;;;16.58;5.32;;;;;10.20;100817.00;;;;5086695;28;19912;-69
2021/05/20 11:52:09;;;;;;;11.85;5.10;;;;;10.30;100829.00;;;;5087330;28;20036;-68
2021/05/20 11:54:38;;;;;;;21.02;6.15;;;;;10.50;100826.00;;;;5086799;28;20048;-69
2021/05/20 11:57:07;;;;;;;11.45;5.10;;;;;10.70;100844.00;;;;5087156;28;20027;-68
2021/05/20 11:59:37;;;;;;;11.48;5.15;;;;;10.80;100862.00;;;;5086947;28;20490;-69
2021/05/20 12:02:19;;;;;;;9.48;5.25;;;;;10.80;100850.00;;;;5086513;28;20032;-67
2021/05/20 12:04:47;;;;;;;17.05;6.38;;;;;11.00;100859.00;;;;5086432;28;20392;-67
2021/05/20 12:07:23;;;;;;;17.35;5.90;;;;;11.10;100861.00;;;;5087161;28;20043;-70
2021/05/20 12:09:51;;;;;;;10.55;5.78;;;;;11.10;100878.00;;;;5087347;28;20111;-68
2021/05/20 12:12:19;;;;;;;7.13;4.80;;;;;11.20;100874.00;;;;5086662;28;20023;-69
2021/05/20 12:14:49;;;;;;;14.65;6.38;;;;;11.20;100869.00;;;;5086342;28;20036;-68
2021/05/20 12:17:17;;;;;;;19.35;7.00;;;;;11.30;100885.00;;;;5086230;28;20028;-68
2021/05/20 12:19:47;;;;;;;14.70;6.50;;;;;11.30;100904.00;;;;5086977;28;20825;-68
2021/05/20 12:22:17;;;;;;;13.40;6.95;;;;;11.40;100907.00;;;;5086368;28;20032;-67